Findlay Airport Findlay US
ICAO: KFDY
IATA: FDY
Category: Medium
Scheduled Services: No

Elevation: 813 ft
TransAlt. 18000 ft.

Airport Communications:
TOLEDO APP/DEP:120.8
ASOS:124.425
CLEVELAND RDO:122.2
CTAF/UNICOM:122.725

KFDY Zoom In..

Runways:

(A) RW 07 length 5883 ft width 100 ft
---- / hdg 74

(B) RW 18 length 6498 ft width 100 ft
---- / hdg 185

(C) RW 25 length 5883 ft width 100 ft
---- / hdg 254

(D) RW 36 length 6498 ft width 100 ft
---- / hdg 5

Location; KFDY
Day. 22 / Time. 03.53 Zulu
* Altimeter: 29.99
* Temperature: 08° c. 46.4°f.
* Wind from: 160° Speed 07 kn.
Dewpoint: 06° c.
Visibility: 6 Statute Miles.
Clouds: Broken 1500 ft.
Clouds: Overcast 2100 ft.
Conditions: Mist.

KFDY 220353Z AUTO 16007KT 6SM BR BKN015 OVC021 08/06 A2999 RMK AO2 SLP155 T00780061


Wind From 160°
Speed 07 kn.

jpsM music video
CHECK IT OUT

jpsM - It Moves..

 
jpsmedia.com for Web Design  worldairports.se 2018   terms of use